Time;durP1;ratioP1;P1;durP2;ratioP2;P2;SDS_P1;SDS_P2;PMS_P1;PMS_P2;Temp;Humidity;BMP_temperature;BMP_pressure;BME280_temperature;BME280_humidity;BME280_pressure;Samples;Min_cycle;Max_cycle;Signal;HPM_P1;HPM_P2
2021/05/21 05:57:45;;;;;;;4.32;0.80;;;19.80;98.50;;;;;;5077616;23;20223;-73
2021/05/21 06:00:13;;;;;;;4.40;0.90;;;19.30;97.70;;;;;;4914932;29;20312;-70
2021/05/21 06:02:40;;;;;;;7.47;0.90;;;19.00;98.00;;;;;;4917928;29;20210;-70
2021/05/21 06:05:07;;;;;;;6.03;0.90;;;19.30;97.70;;;;;;4917711;29;20257;-70
2021/05/21 06:07:34;;;;;;;5.35;1.05;;;20.20;97.10;;;;;;4917770;29;20212;-69
2021/05/21 06:10:00;;;;;;;7.20;1.17;;;20.40;95.90;;;;;;4917551;29;20233;-70
2021/05/21 06:12:26;;;;;;;6.03;1.80;;;20.30;95.40;;;;;;4917183;29;20738;-70
2021/05/21 06:14:52;;;;;;;4.47;0.82;;;20.00;94.90;;;;;;4917896;29;20301;-71
2021/05/21 06:17:19;;;;;;;3.70;1.00;;;19.40;95.60;;;;;;4917723;29;20323;-69
2021/05/21 06:19:47;;;;;;;5.38;1.02;;;19.30;95.40;;;;;;4917065;29;20218;-68
2021/05/21 06:22:13;;;;;;;4.47;1.17;;;19.60;95.80;;;;;;4916277;29;20581;-71
2021/05/21 06:24:42;;;;;;;6.35;1.35;;;20.00;95.00;;;;;;4916967;29;20316;-68
2021/05/21 06:27:24;;;;;;;6.30;0.98;;;20.60;93.90;;;;;;4916938;29;20261;-67
2021/05/21 06:29:51;;;;;;;5.30;1.02;;;21.00;94.20;;;;;;4917322;29;20267;-69
2021/05/21 06:32:17;;;;;;;4.93;1.48;;;20.20;92.80;;;;;;4917345;29;20216;-68
2021/05/21 06:34:44;;;;;;;4.30;0.90;;;19.80;93.50;;;;;;4916548;29;20236;-68
2021/05/21 06:37:10;;;;;;;5.60;0.70;;;20.00;93.60;;;;;;4916976;29;20206;-68
2021/05/21 06:39:37;;;;;;;10.02;0.90;;;20.60;93.20;;;;;;4917419;29;20217;-71
2021/05/21 06:42:03;;;;;;;7.15;1.40;;;20.60;92.60;;;;;;4916707;29;20221;-72
2021/05/21 06:44:30;;;;;;;2.88;1.10;;;20.70;93.00;;;;;;4917080;29;20237;-73
2021/05/21 06:46:58;;;;;;;4.63;0.82;;;21.20;92.40;;;;;;4916975;29;20214;-72
2021/05/21 06:49:24;;;;;;;5.65;1.00;;;21.50;91.90;;;;;;4915955;29;20708;-72
2021/05/21 06:51:51;;;;;;;3.50;1.08;;;20.70;92.30;;;;;;4917027;29;20577;-73
2021/05/21 06:54:18;;;;;;;3.25;0.60;;;20.10;92.20;;;;;;4916675;29;20216;-72
2021/05/21 06:56:45;;;;;;;4.60;0.70;;;20.10;92.90;;;;;;4917049;29;20258;-73
2021/05/21 06:59:11;;;;;;;6.50;1.20;;;19.60;93.60;;;;;;4916685;29;20225;-72
2021/05/21 07:01:37;;;;;;;5.20;1.02;;;20.10;94.20;;;;;;4916824;29;20665;-72
2021/05/21 07:04:04;;;;;;;3.67;0.93;;;19.80;93.30;;;;;;4916266;29;20214;-70
2021/05/21 07:06:30;;;;;;;4.37;0.90;;;19.00;93.60;;;;;;4918050;29;20255;-72
2021/05/21 07:08:57;;;;;;;4.67;0.90;;;17.90;95.40;;;;;;4918013;29;20244;-71
2021/05/21 07:11:23;;;;;;;3.97;1.10;;;17.20;96.20;;;;;;4917861;29;20213;-72
2021/05/21 07:13:49;;;;;;;5.97;1.00;;;16.70;97.30;;;;;;4917562;29;20265;-71
2021/05/21 07:16:16;;;;;;;6.27;1.03;;;16.20;98.00;;;;;;4917708;29;20230;-70
2021/05/21 07:18:42;;;;;;;5.87;0.80;;;16.20;98.10;;;;;;4917307;29;20209;-70
2021/05/21 07:21:08;;;;;;;5.17;0.73;;;17.00;97.00;;;;;;4917649;29;20212;-71
2021/05/21 07:23:35;;;;;;;7.60;1.10;;;18.10;96.90;;;;;;4913339;29;20201;-72
2021/05/21 07:26:02;;;;;;;8.83;0.97;;;18.80;95.40;;;;;;4920007;29;20231;-73
2021/05/21 07:28:28;;;;;;;8.07;0.97;;;19.30;94.50;;;;;;4916621;29;20220;-72
2021/05/21 07:30:54;;;;;;;5.68;1.02;;;19.90;94.20;;;;;;4915583;29;20237;-71
2021/05/21 07:33:21;;;;;;;3.60;0.93;;;20.90;92.50;;;;;;4913674;29;20669;-72
2021/05/21 07:35:47;;;;;;;2.72;0.70;;;20.90;91.80;;;;;;4915395;29;20628;-72
